Burns Town, Louisiana
Current Conditions -  °F | °C
As of 6:53 PM on Friday 19 Dec 2014 (Local Time) from KAEX Reporting Station
Light Rain Light Rain  
Wind Chill: 45°   Ceiling: 800
Heat Index: 48°   Visibility: 10mi
Dew Point: 47°   Wind: 6mph
Humidity: 96%   Direction: 10°N
Pressure: 30.1"   Gusts: NA
Location:  31.4254°N, 92.7765°W
Report Text: KAEX 200053Z 01005KT 10SM -RA OVC008 09/08 A3010 RMK AO2 SLP196 P0000 T00890083
Loading
Personal Weather Stations






























Interactive Weather Map New forecast layout! Learn more

10-Day Weather Forecast

Advertisements
Track Severe Weather on mobile